Henry, Nebraska
Current Conditions -  °F | °C
As of 12:53 AM on Saturday 25 Oct 2014 (Local Time) from KTOR Reporting Station
Clear Clear  
Wind Chill: 49°   Ceiling: Unl
Heat Index: 49°   Visibility: 10mi
Dew Point: 28°   Wind: 3mph
Humidity: 44%   Direction: 40°NE
Pressure: 30.13"   Gusts: NA
Location:  42°N, 104.05°W
Report Text: KTOR 250653Z AUTO 04003KT 10SM CLR 09/M02 A3013 RMK AO2 SLP168 T00941022 402780067
Loading
Personal Weather Stations






























Interactive Weather Map
Tropical Storm Tracking
New forecast layout! Learn more

10-Day Weather Forecast

Advertisements
Track Severe Weather on mobile